Terminal Aerodrome Forecast
Issued by NWS

Home | Current Version | Previous Version | Graphics & Text | Print | Product List | Glossary Off
Versions: 1 2 3 4 5 6 7 8 9 10 11 12 13

000
FTUS43 KGRB 281100
TAFATW
TAF
KATW 281137Z 2812/2912 36004KT P6SM SKC
     FM281500 01008KT P6SM SCT250
     FM290000 14004KT P6SM SCT080 BKN250
     FM290400 VRB03KT P6SM FEW050 BKN100=

USA.gov is the U.S. government's official web portal to all federal, state and local government web resources and services.